createdAt,value
2022-08-25T00:02:00.475Z,100996.88
2022-08-25T00:04:29.737Z,100999.91
2022-08-25T00:07:02.099Z,100999.28
2022-08-25T00:09:30.612Z,100997.78
2022-08-25T00:11:57.892Z,100999.44
2022-08-25T00:14:30.007Z,100999.63
2022-08-25T00:16:57.524Z,100998.34
2022-08-25T00:19:28.780Z,100989.75
2022-08-25T00:21:56.403Z,101001.19
2022-08-25T00:24:24.592Z,100994.44
2022-08-25T00:26:55.176Z,101002.41
2022-08-25T00:29:25.940Z,101000.09
2022-08-25T00:31:54.598Z,100993.13
2022-08-25T00:34:29.419Z,100991.84
2022-08-25T00:36:56.759Z,100992.03
2022-08-25T00:39:24.505Z,100988.91
2022-08-25T00:41:56.692Z,100996.06
2022-08-25T00:44:25.385Z,100999.09
2022-08-25T00:46:56.383Z,100991.41
2022-08-25T00:49:40.802Z,100997.09
2022-08-25T00:52:12.193Z,100996.63
2022-08-25T00:54:50.789Z,100994.34
2022-08-25T00:57:34.136Z,100986.91
2022-08-25T01:00:10.790Z,100987.91
2022-08-25T01:02:38.579Z,100997.09
2022-08-25T01:05:06.508Z,100986.84
2022-08-25T01:07:33.922Z,100983.69
2022-08-25T01:10:01.338Z,100995.19
2022-08-25T01:12:30.535Z,100989.38
2022-08-25T01:14:58.280Z,100987.94
2022-08-25T01:17:28.208Z,100988.56
2022-08-25T01:19:55.943Z,100989.75
2022-08-25T01:22:26.825Z,100989.75
2022-08-25T01:25:02.212Z,100985.63
2022-08-25T01:27:30.601Z,100985.81
2022-08-25T01:29:58.161Z,100988.66
2022-08-25T01:32:25.268Z,100981.50
2022-08-25T01:34:52.328Z,100983.53
2022-08-25T01:37:20.769Z,100977.38
2022-08-25T01:39:48.168Z,100985.53
2022-08-25T01:42:15.132Z,100975.91
2022-08-25T01:44:45.492Z,100983.06
2022-08-25T01:47:13.896Z,100985.06
2022-08-25T01:49:41.207Z,100987.91
2022-08-25T01:52:40.475Z,100985.91
2022-08-25T01:55:07.849Z,100990.72
2022-08-25T01:57:34.837Z,100990.72
2022-08-25T02:00:01.858Z,100986.28
2022-08-25T02:02:38.026Z,100995.41
2022-08-25T02:05:11.686Z,100994.41
2022-08-25T02:07:38.775Z,100996.91
2022-08-25T02:10:07.591Z,100988.75
2022-08-25T02:12:35.357Z,100996.53
2022-08-25T02:15:22.448Z,100993.88
2022-08-25T02:17:49.466Z,100996.53
2022-08-25T02:20:16.757Z,100994.50
2022-08-25T02:22:53.053Z,100992.41
2022-08-25T02:25:24.013Z,100997.72
2022-08-25T02:27:51.258Z,100996.53
2022-08-25T02:30:18.486Z,100994.88
2022-08-25T02:32:45.444Z,100998.53
2022-08-25T02:35:13.848Z,100992.56
2022-08-25T02:37:41.085Z,100995.22
2022-08-25T02:40:08.974Z,100984.78
2022-08-25T02:42:37.323Z,100986.44
2022-08-25T02:45:05.044Z,100989.91
2022-08-25T02:47:32.115Z,100989.91
2022-08-25T02:49:59.626Z,100989.09
2022-08-25T02:52:26.686Z,100985.59
2022-08-25T02:54:54.105Z,100987.25
2022-08-25T02:57:21.725Z,100978.84
2022-08-25T02:59:48.842Z,100988.94
2022-08-25T03:02:16.893Z,100982.59
2022-08-25T03:04:44.247Z,100985.91
2022-08-25T03:07:12.719Z,100994.16
2022-08-25T03:09:39.803Z,100985.16
2022-08-25T03:12:07.054Z,100996.09
2022-08-25T03:14:33.946Z,100994.34
2022-08-25T03:17:01.063Z,100993.97
2022-08-25T03:19:28.062Z,100996.25
2022-08-25T03:21:57.073Z,100997.56
2022-08-25T03:24:24.346Z,100990.22
2022-08-25T03:26:54.339Z,100994.16
2022-08-25T03:29:26.717Z,100993.63
2022-08-25T03:31:55.673Z,100994.25
2022-08-25T03:34:23.195Z,100993.88
2022-08-25T03:36:53.532Z,100989.00
2022-08-25T03:39:23.559Z,100984.97
2022-08-25T03:41:51.814Z,100983.59
2022-08-25T03:44:20.655Z,100980.19
2022-08-25T03:46:51.380Z,100982.28
2022-08-25T03:49:22.867Z,100986.91
2022-08-25T03:51:52.817Z,100981.81
2022-08-25T03:54:24.033Z,100986.22
2022-08-25T03:56:51.414Z,100980.97
2022-08-25T03:59:18.992Z,100987.00
2022-08-25T04:01:50.226Z,100975.59
2022-08-25T04:04:20.559Z,100975.47
2022-08-25T04:06:47.523Z,100977.19
2022-08-25T04:09:14.523Z,100975.22
2022-08-25T04:11:42.512Z,100980.44
2022-08-25T04:14:15.803Z,100970.03
2022-08-25T04:16:44.355Z,100970.16
2022-08-25T04:19:12.078Z,100967.19
2022-08-25T04:21:40.818Z,100966.81
2022-08-25T04:24:09.949Z,100960.34
2022-08-25T04:26:43.925Z,100959.13
2022-08-25T04:29:12.670Z,100963.50
2022-08-25T04:31:43.123Z,100955.97
2022-08-25T04:34:29.664Z,100958.28
2022-08-25T04:37:02.014Z,100952.59
2022-08-25T04:39:29.563Z,100950.22
2022-08-25T04:41:56.655Z,100958.44
2022-08-25T04:44:23.762Z,100957.66
2022-08-25T04:46:50.806Z,100956.13
2022-08-25T04:49:18.226Z,100953.97
2022-08-25T04:51:45.791Z,100956.56
2022-08-25T04:54:17.039Z,100949.22
2022-08-25T04:56:44.239Z,100955.88
2022-08-25T04:59:14.164Z,100950.44
2022-08-25T05:01:43.289Z,100950.41
2022-08-25T05:04:23.442Z,100947.47
2022-08-25T05:06:56.406Z,100949.94
2022-08-25T05:09:25.227Z,100947.00
2022-08-25T05:11:53.558Z,100943.44
2022-08-25T05:14:25.573Z,100946.22
2022-08-25T05:16:58.161Z,100940.16
2022-08-25T05:19:26.576Z,100935.91
2022-08-25T05:21:54.097Z,100941.31
2022-08-25T05:24:22.382Z,100933.38
2022-08-25T05:26:49.921Z,100934.25
2022-08-25T05:29:17.571Z,100940.06
2022-08-25T05:31:50.169Z,100931.28
2022-08-25T05:34:19.565Z,100930.59
2022-08-25T05:36:47.297Z,100927.34
2022-08-25T05:39:14.814Z,100923.97
2022-08-25T05:41:41.932Z,100921.31
2022-08-25T05:44:09.041Z,100927.56
2022-08-25T05:46:36.071Z,100924.72
2022-08-25T05:49:03.071Z,100923.44
2022-08-25T05:51:30.177Z,100923.03
2022-08-25T05:53:57.104Z,100916.94
2022-08-25T05:56:24.146Z,100909.72
2022-08-25T05:58:51.396Z,100917.06
2022-08-25T06:01:46.547Z,100921.31
2022-08-25T06:04:18.094Z,100916.38
2022-08-25T06:06:45.176Z,100923.72
2022-08-25T06:09:12.148Z,100921.50
2022-08-25T06:11:40.708Z,100917.63
2022-08-25T06:14:11.359Z,100922.31
2022-08-25T06:16:39.443Z,100917.19
2022-08-25T06:19:09.080Z,100921.50
2022-08-25T06:21:39.238Z,100926.22
2022-08-25T06:24:09.228Z,100917.84
2022-08-25T06:26:39.250Z,100917.53
2022-08-25T06:29:06.243Z,100918.91
2022-08-25T06:31:33.464Z,100920.06
2022-08-25T06:34:00.537Z,100912.81
2022-08-25T06:36:27.472Z,100908.66
2022-08-25T06:38:54.398Z,100911.53
2022-08-25T06:41:21.375Z,100910.25
2022-08-25T06:43:51.830Z,100911.31
2022-08-25T06:46:35.665Z,100908.47
2022-08-25T06:49:06.319Z,100906.06
2022-08-25T06:51:36.269Z,100903.31
2022-08-25T06:54:05.821Z,100889.47
2022-08-25T06:56:34.153Z,100896.25
2022-08-25T06:59:03.323Z,100891.00
2022-08-25T07:01:32.283Z,100893.69
2022-08-25T07:04:02.391Z,100891.19
2022-08-25T07:06:31.929Z,100896.63
2022-08-25T07:08:59.452Z,100890.94
2022-08-25T07:11:26.847Z,100897.34
2022-08-25T07:13:54.169Z,100880.00
2022-08-25T07:16:21.757Z,100891.31
2022-08-25T07:18:49.619Z,100886.84
2022-08-25T07:21:17.499Z,100892.81
2022-08-25T07:23:47.155Z,100882.72
2022-08-25T07:29:09.588Z,100875.44
2022-08-25T07:31:37.514Z,100878.41
2022-08-25T07:34:24.153Z,100880.34
2022-08-25T07:36:53.806Z,100877.19
2022-08-25T07:39:22.128Z,100879.03
2022-08-25T07:41:52.442Z,100876.03
2022-08-25T07:44:21.782Z,100871.94
2022-08-25T07:46:50.347Z,100870.09
2022-08-25T07:49:23.570Z,100877.06
2022-08-25T07:52:05.437Z,100867.31
2022-08-25T07:54:35.559Z,100866.69
2022-08-25T07:57:09.053Z,100864.75
2022-08-25T07:59:40.937Z,100859.56
2022-08-25T08:02:18.965Z,100859.66
2022-08-25T08:04:52.454Z,100850.06
2022-08-25T08:07:42.110Z,100851.81
2022-08-25T08:13:01.046Z,100844.31
2022-08-25T08:15:29.609Z,100848.59
2022-08-25T08:17:59.350Z,100846.28
2022-08-25T08:20:27.317Z,100843.00
2022-08-25T08:22:55.280Z,100830.72
2022-08-25T08:25:27.590Z,100832.50
2022-08-25T08:27:56.015Z,100839.13
2022-08-25T08:30:26.210Z,100832.59
2022-08-25T08:33:11.434Z,100827.34
2022-08-25T08:35:41.221Z,100826.88
2022-08-25T08:38:14.747Z,100831.84
2022-08-25T08:41:14.640Z,100822.41
2022-08-25T08:43:43.879Z,100821.41
2022-08-25T08:46:11.397Z,100825.56
2022-08-25T08:48:59.148Z,100816.56
2022-08-25T08:51:33.539Z,100819.06
2022-08-25T08:54:30.001Z,100824.88
2022-08-25T08:57:15.550Z,100818.78
2022-08-25T08:59:55.001Z,100809.66
2022-08-25T09:02:37.923Z,100805.28
2022-08-25T09:05:15.091Z,100810.91
2022-08-25T09:07:48.536Z,100806.22
2022-08-25T09:10:23.488Z,100811.34
2022-08-25T09:13:19.863Z,100803.16
2022-08-25T09:16:20.644Z,100798.44
2022-08-25T09:19:23.424Z,100800.78
2022-08-25T09:21:59.817Z,100799.34
2022-08-25T09:24:42.358Z,100796.06
2022-08-25T09:27:41.774Z,100793.38
2022-08-25T09:30:21.514Z,100788.03
2022-08-25T09:33:05.274Z,100787.69
2022-08-25T09:35:35.660Z,100783.88
2022-08-25T09:38:13.285Z,100777.25
2022-08-25T09:40:46.171Z,100779.75
2022-08-25T09:43:37.666Z,100772.97
2022-08-25T09:46:26.866Z,100771.19
2022-08-25T09:48:56.929Z,100773.63
2022-08-25T09:51:38.166Z,100775.28
2022-08-25T09:54:15.828Z,100770.78
2022-08-25T09:56:59.478Z,100765.50
2022-08-25T09:59:34.901Z,100759.88
2022-08-25T10:02:06.461Z,100762.34
2022-08-25T10:04:40.044Z,100765.31
2022-08-25T10:07:52.055Z,100771.75
2022-08-25T10:10:28.727Z,100760.50
2022-08-25T10:13:01.932Z,100749.53
2022-08-25T10:15:36.134Z,100744.31
2022-08-25T10:18:26.301Z,100746.47
2022-08-25T10:21:14.954Z,100747.31
2022-08-25T10:23:52.843Z,100746.34
2022-08-25T10:26:35.243Z,100746.97
2022-08-25T10:29:20.475Z,100745.00
2022-08-25T10:32:30.902Z,100742.63
2022-08-25T10:35:03.497Z,100738.09
2022-08-25T10:37:52.682Z,100738.00
2022-08-25T10:40:28.872Z,100746.69
2022-08-25T10:43:08.559Z,100743.09
2022-08-25T10:45:45.863Z,100740.84
2022-08-25T10:48:25.642Z,100724.41
2022-08-25T10:51:01.269Z,100726.34
2022-08-25T10:53:34.171Z,100717.31
2022-08-25T10:56:22.630Z,100716.34
2022-08-25T10:59:13.489Z,100718.44
2022-08-25T11:01:45.292Z,100710.94
2022-08-25T11:04:31.337Z,100714.78
2022-08-25T11:07:19.715Z,100714.84
2022-08-25T11:09:51.147Z,100701.13
2022-08-25T11:12:25.801Z,100690.63
2022-08-25T11:14:57.878Z,100692.06
2022-08-25T11:17:38.899Z,100691.06
2022-08-25T11:20:19.953Z,100690.00
2022-08-25T11:23:14.913Z,100686.56
2022-08-25T11:25:51.452Z,100675.28
2022-08-25T11:29:01.189Z,100675.72
2022-08-25T11:31:28.863Z,100672.63
2022-08-25T11:33:58.165Z,100676.03
2022-08-25T11:36:36.939Z,100666.41
2022-08-25T11:39:13.012Z,100672.13
2022-08-25T11:42:25.916Z,100665.00
2022-08-25T11:45:17.591Z,100670.63
2022-08-25T11:48:13.172Z,100662.50
2022-08-25T11:50:55.720Z,100654.94
2022-08-25T11:53:28.950Z,100661.41
2022-08-25T11:56:07.679Z,100663.53
2022-08-25T11:58:49.865Z,100655.28
2022-08-25T12:01:32.750Z,100651.66
2022-08-25T12:04:44.879Z,100653.50
2022-08-25T12:07:17.482Z,100653.19
2022-08-25T12:09:51.513Z,100656.44
2022-08-25T12:12:32.449Z,100649.06
2022-08-25T12:15:33.604Z,100648.66
2022-08-25T12:18:35.506Z,100645.72
2022-08-25T12:21:04.070Z,100639.47
2022-08-25T12:24:13.945Z,100633.03
2022-08-25T12:27:00.904Z,100638.09
2022-08-25T12:30:15.591Z,100634.97
2022-08-25T12:32:49.183Z,100628.56
2022-08-25T12:35:30.311Z,100630.38
2022-08-25T12:38:19.149Z,100625.81
2022-08-25T12:40:46.020Z,100630.66
2022-08-25T12:43:26.779Z,100626.25
2022-08-25T12:46:19.911Z,100626.25
2022-08-25T12:49:01.951Z,100625.41
2022-08-25T12:51:48.459Z,100621.09
2022-08-25T12:54:27.840Z,100620.38
2022-08-25T12:57:03.148Z,100614.22
2022-08-25T12:59:49.935Z,100604.50
2022-08-25T13:02:51.594Z,100614.16
2022-08-25T13:05:37.649Z,100608.34
2022-08-25T13:08:07.583Z,100599.97
2022-08-25T13:11:04.934Z,100610.03
2022-08-25T13:13:40.601Z,100604.56
2022-08-25T13:16:16.282Z,100591.25
2022-08-25T13:18:45.261Z,100597.47
2022-08-25T13:21:20.236Z,100587.53
2022-08-25T13:23:50.801Z,100588.84
2022-08-25T13:26:27.024Z,100588.41
2022-08-25T13:29:00.189Z,100586.22
2022-08-25T13:31:29.832Z,100583.31
2022-08-25T13:34:08.243Z,100584.78
2022-08-25T13:37:02.275Z,100586.63
2022-08-25T13:39:54.874Z,100577.75
2022-08-25T13:42:20.495Z,100581.78
2022-08-25T13:44:55.221Z,100580.47
2022-08-25T13:47:45.153Z,100584.00
2022-08-25T13:50:31.327Z,100575.34
2022-08-25T13:53:11.558Z,100576.75
2022-08-25T13:55:51.720Z,100564.84
2022-08-25T13:58:44.283Z,100565.47
2022-08-25T14:01:23.307Z,100561.09
2022-08-25T14:04:50.477Z,100562.31
2022-08-25T14:07:22.580Z,100563.34
2022-08-25T14:09:58.475Z,100549.53
2022-08-25T14:12:45.030Z,100544.16
2022-08-25T14:15:34.037Z,100554.97
2022-08-25T14:18:30.849Z,100553.13
2022-08-25T14:21:07.671Z,100546.88
2022-08-25T14:23:37.237Z,100549.28
2022-08-25T14:26:04.797Z,100559.59
2022-08-25T14:28:34.173Z,100558.50
2022-08-25T14:31:15.339Z,100547.16
2022-08-25T14:33:52.026Z,100547.72
2022-08-25T14:36:20.967Z,100549.38
2022-08-25T14:38:54.537Z,100548.28
2022-08-25T14:41:24.078Z,100543.69
2022-08-25T14:43:51.151Z,100543.16
2022-08-25T14:46:30.816Z,100540.69
2022-08-25T14:49:05.099Z,100538.00
2022-08-25T14:51:34.046Z,100546.66
2022-08-25T14:54:07.543Z,100535.28
2022-08-25T14:56:35.951Z,100531.75
2022-08-25T14:59:04.912Z,100535.28
2022-08-25T15:01:32.025Z,100534.72
2022-08-25T15:04:27.708Z,100540.13
2022-08-25T15:07:02.836Z,100529.56
2022-08-25T15:09:33.574Z,100534.38
2022-08-25T15:12:01.079Z,100535.44
2022-08-25T15:14:28.903Z,100525.44
2022-08-25T15:17:01.604Z,100535.44
2022-08-25T15:19:29.440Z,100525.94
2022-08-25T15:21:58.148Z,100525.09
2022-08-25T15:24:27.959Z,100523.19
2022-08-25T15:26:58.734Z,100524.25
2022-08-25T15:29:29.933Z,100515.78
2022-08-25T15:31:58.939Z,100514.13
2022-08-25T15:34:26.403Z,100517.59
2022-08-25T15:36:53.686Z,100520.28
2022-08-25T15:39:20.830Z,100523.72
2022-08-25T15:41:54.499Z,100510.44
2022-08-25T15:44:25.079Z,100516.34
2022-08-25T15:46:56.383Z,100513.63
2022-08-25T15:49:24.182Z,100509.50
2022-08-25T15:51:53.064Z,100521.31
2022-08-25T15:54:23.605Z,100519.34
2022-08-25T15:56:54.219Z,100516.59
2022-08-25T15:59:22.528Z,100520.00
2022-08-25T16:01:55.512Z,100520.72
2022-08-25T16:04:24.408Z,100517.66
2022-08-25T16:06:52.136Z,100519.69
2022-08-25T16:09:23.008Z,100523.66
2022-08-25T16:11:57.172Z,100526.50
2022-08-25T16:14:27.840Z,100525.59
2022-08-25T16:16:58.005Z,100526.25
2022-08-25T16:19:28.151Z,100526.94
2022-08-25T16:21:55.217Z,100522.25
2022-08-25T16:24:22.357Z,100519.69
2022-08-25T16:26:50.346Z,100519.53
2022-08-25T16:29:19.988Z,100523.72
2022-08-25T16:31:53.218Z,100526.28
2022-08-25T16:34:24.799Z,100521.78
2022-08-25T16:36:55.802Z,100522.19
2022-08-25T16:39:24.011Z,100525.78
2022-08-25T16:41:52.332Z,100529.69
2022-08-25T16:44:22.511Z,100530.34
2022-08-25T16:46:54.397Z,100532.66
2022-08-25T16:49:24.249Z,100534.91
2022-08-25T16:51:57.169Z,100532.59
2022-08-25T16:54:44.488Z,100538.38
2022-08-25T16:57:12.000Z,100535.72
2022-08-25T16:59:38.998Z,100534.81
2022-08-25T17:02:06.762Z,100538.72
2022-08-25T17:04:33.882Z,100525.78
2022-08-25T17:07:01.872Z,100540.84
2022-08-25T17:09:29.709Z,100542.84
2022-08-25T17:11:57.417Z,100535.19
2022-08-25T17:14:25.173Z,100541.47
2022-08-25T17:16:55.265Z,100539.72
2022-08-25T17:19:25.053Z,100538.59
2022-08-25T17:21:53.871Z,100540.56
2022-08-25T17:24:21.743Z,100539.06
2022-08-25T17:26:57.010Z,100533.81
2022-08-25T17:29:24.722Z,100545.25
2022-08-25T17:31:52.025Z,100541.44
2022-08-25T17:34:23.157Z,100543.19
2022-08-25T17:36:51.999Z,100538.75
2022-08-25T17:39:22.250Z,100541.56
2022-08-25T17:41:50.745Z,100540.56
2022-08-25T17:44:19.435Z,100540.47
2022-08-25T17:46:47.997Z,100540.13
2022-08-25T17:49:16.567Z,100539.16
2022-08-25T17:51:43.621Z,100543.84
2022-08-25T17:54:12.374Z,100542.66
2022-08-25T17:56:39.933Z,100539.63
2022-08-25T17:59:07.618Z,100546.72
2022-08-25T18:01:40.418Z,100546.59
2022-08-25T18:04:14.267Z,100548.09
2022-08-25T18:06:48.655Z,100550.44
2022-08-25T18:09:17.496Z,100546.81
2022-08-25T18:11:45.698Z,100550.41
2022-08-25T18:14:14.474Z,100549.44
2022-08-25T18:16:42.145Z,100542.06
2022-08-25T18:19:10.949Z,100543.59
2022-08-25T18:21:38.916Z,100545.06
2022-08-25T18:24:08.048Z,100534.56
2022-08-25T18:26:35.813Z,100544.34
2022-08-25T18:29:03.244Z,100544.44
2022-08-25T18:31:30.998Z,100545.72
2022-08-25T18:33:59.417Z,100539.97
2022-08-25T18:36:26.390Z,100540.44
2022-08-25T18:39:13.644Z,100540.88
2022-08-25T18:41:42.684Z,100539.72
2022-08-25T18:44:12.479Z,100536.44
2022-08-25T18:46:42.841Z,100544.09
2022-08-25T18:49:12.548Z,100531.16
2022-08-25T18:51:45.685Z,100539.06
2022-08-25T18:54:22.370Z,100538.69
2022-08-25T18:56:51.972Z,100536.69
2022-08-25T18:59:20.202Z,100538.78
2022-08-25T19:01:51.787Z,100542.13
2022-08-25T19:04:18.854Z,100539.03
2022-08-25T19:06:45.906Z,100536.81
2022-08-25T19:09:13.600Z,100533.97
2022-08-25T19:11:43.388Z,100534.19
2022-08-25T19:14:12.659Z,100528.50
2022-08-25T19:16:41.592Z,100524.63
2022-08-25T19:19:12.606Z,100529.97
2022-08-25T19:21:41.341Z,100532.50
2022-08-25T19:24:11.167Z,100531.69
2022-08-25T19:26:38.955Z,100527.00
2022-08-25T19:29:10.642Z,100525.34
2022-08-25T19:31:39.625Z,100526.25
2022-08-25T19:34:08.871Z,100525.66
2022-08-25T19:36:36.174Z,100527.75
2022-08-25T19:39:06.940Z,100520.16
2022-08-25T19:41:34.354Z,100524.88
2022-08-25T19:44:03.112Z,100526.97
2022-08-25T19:46:37.479Z,100513.91
2022-08-25T19:49:08.810Z,100520.41
2022-08-25T19:51:44.072Z,100516.56
2022-08-25T19:54:17.740Z,100525.03
2022-08-25T19:56:54.855Z,100523.38
2022-08-25T19:59:40.618Z,100516.63
2022-08-25T20:02:17.219Z,100526.72
2022-08-25T20:04:49.587Z,100525.31
2022-08-25T20:07:20.230Z,100519.34
2022-08-25T20:09:48.372Z,100521.66
2022-08-25T20:14:48.979Z,100514.03
2022-08-25T20:17:23.726Z,100527.03
2022-08-25T20:19:54.405Z,100515.97
2022-08-25T20:22:25.840Z,100519.88
2022-08-25T20:24:57.538Z,100517.84
2022-08-25T20:27:32.315Z,100520.53
2022-08-25T20:30:02.623Z,100520.75
2022-08-25T20:32:33.867Z,100519.09
2022-08-25T20:35:02.066Z,100518.50
2022-08-25T20:37:31.193Z,100521.19
2022-08-25T20:40:01.073Z,100521.63
2022-08-25T20:42:28.265Z,100519.16
2022-08-25T20:44:55.340Z,100521.47
2022-08-25T20:47:22.790Z,100521.66
2022-08-25T20:49:50.311Z,100526.63
2022-08-25T20:54:46.912Z,100519.69
2022-08-25T20:57:25.716Z,100516.88
2022-08-25T20:59:54.895Z,100530.00
2022-08-25T21:02:23.287Z,100523.44
2022-08-25T21:04:50.774Z,100521.22
2022-08-25T21:07:18.682Z,100533.13
2022-08-25T21:09:46.709Z,100525.31
2022-08-25T21:12:14.551Z,100531.09
2022-08-25T21:14:42.201Z,100530.50
2022-08-25T21:17:12.779Z,100527.66
2022-08-25T21:19:41.667Z,100527.06
2022-08-25T21:22:10.667Z,100530.16
2022-08-25T21:24:39.201Z,100527.09
2022-08-25T21:27:06.550Z,100538.38
2022-08-25T21:29:33.804Z,100533.44
2022-08-25T21:32:00.869Z,100532.25
2022-08-25T21:34:29.032Z,100536.38
2022-08-25T21:36:58.178Z,100531.06
2022-08-25T21:39:28.677Z,100541.34
2022-08-25T21:41:56.639Z,100536.88
2022-08-25T21:44:23.686Z,100537.69
2022-08-25T21:46:54.071Z,100534.19
2022-08-25T21:49:23.410Z,100533.59
2022-08-25T21:52:00.505Z,100534.03
2022-08-25T21:54:29.180Z,100538.94
2022-08-25T21:57:02.748Z,100543.06
2022-08-25T21:59:41.148Z,100546.38
2022-08-25T22:02:10.689Z,100543.06
2022-08-25T22:04:39.541Z,100542.69
2022-08-25T22:07:08.188Z,100539.41
2022-08-25T22:09:35.794Z,100539.63
2022-08-25T22:12:03.926Z,100540.03
2022-08-25T22:14:31.219Z,100536.78
2022-08-25T22:16:58.243Z,100530.81
2022-08-25T22:19:26.942Z,100538.41
2022-08-25T22:21:55.239Z,100533.50
2022-08-25T22:24:23.025Z,100533.69
2022-08-25T22:26:55.689Z,100536.97
2022-08-25T22:29:25.131Z,100540.88
2022-08-25T22:31:58.677Z,100535.97
2022-08-25T22:34:32.451Z,100538.84
2022-08-25T22:37:01.825Z,100529.38
2022-08-25T22:39:34.293Z,100533.28
2022-08-25T22:42:02.967Z,100526.13
2022-08-25T22:44:30.321Z,100536.81
2022-08-25T22:46:57.311Z,100542.34
2022-08-25T22:49:24.415Z,100535.78
2022-08-25T22:51:55.090Z,100529.19
2022-08-25T22:54:23.005Z,100527.16
2022-08-25T22:56:50.943Z,100537.00
2022-08-25T22:59:17.976Z,100533.13
2022-08-25T23:01:45.670Z,100539.47
2022-08-25T23:04:14.846Z,100535.34
2022-08-25T23:06:44.882Z,100538.22
2022-08-25T23:09:12.013Z,100538.63
2022-08-25T23:11:40.057Z,100548.50
2022-08-25T23:14:10.367Z,100541.09
2022-08-25T23:16:42.307Z,100542.13
2022-08-25T23:19:10.980Z,100541.91
2022-08-25T23:22:07.942Z,100533.31
2022-08-25T23:24:36.152Z,100542.72
2022-08-25T23:27:05.360Z,100541.13
2022-08-25T23:29:34.414Z,100532.69
2022-08-25T23:32:01.547Z,100533.72
2022-08-25T23:34:28.729Z,100529.63
2022-08-25T23:36:56.744Z,100526.97
2022-08-25T23:39:24.124Z,100528.16
2022-08-25T23:41:51.868Z,100531.25
2022-08-25T23:44:20.674Z,100535.75
2022-08-25T23:46:49.323Z,100534.31
2022-08-25T23:49:19.011Z,100531.84
2022-08-25T23:51:48.689Z,100539.84
2022-08-25T23:54:18.129Z,100534.06
2022-08-25T23:56:51.835Z,100537.38
2022-08-25T23:59:24.336Z,100536.72
